sensor_id;sensor_type;location;lat;lon;timestamp;pressure;altitude;pressure_sealevel;temperature;humidity
5651;BME280;40241;52.684;9.758;2023-05-24T00:01:39;101897.53;;;11.98;55.35
5651;BME280;40241;52.684;9.758;2023-05-24T00:04:06;101892.94;;;11.95;55.22
5651;BME280;40241;52.684;9.758;2023-05-24T00:06:32;101894.34;;;11.91;55.17
5651;BME280;40241;52.684;9.758;2023-05-24T00:09:03;101892.56;;;11.88;55.39
5651;BME280;40241;52.684;9.758;2023-05-24T00:11:29;101897.31;;;11.87;55.49
5651;BME280;40241;52.684;9.758;2023-05-24T00:13:54;101889.97;;;11.84;55.50
5651;BME280;40241;52.684;9.758;2023-05-24T00:16:20;101904.41;;;11.79;55.40
5651;BME280;40241;52.684;9.758;2023-05-24T00:18:45;101906.84;;;11.77;55.73
5651;BME280;40241;52.684;9.758;2023-05-24T00:21:12;101912.97;;;11.81;55.82
5651;BME280;40241;52.684;9.758;2023-05-24T00:23:37;101899.94;;;11.82;55.86
5651;BME280;40241;52.684;9.758;2023-05-24T00:26:04;101899.47;;;11.83;55.92
5651;BME280;40241;52.684;9.758;2023-05-24T00:28:30;101892.56;;;11.88;56.08
5651;BME280;40241;52.684;9.758;2023-05-24T00:30:56;101896.34;;;11.90;56.15
5651;BME280;40241;52.684;9.758;2023-05-24T00:33:21;101891.44;;;11.94;56.01
5651;BME280;40241;52.684;9.758;2023-05-24T00:35:48;101888.97;;;11.96;55.92
5651;BME280;40241;52.684;9.758;2023-05-24T00:38:13;101886.50;;;11.98;56.13
5651;BME280;40241;52.684;9.758;2023-05-24T00:40:39;101887.25;;;11.99;55.95
5651;BME280;40241;52.684;9.758;2023-05-24T00:43:04;101886.22;;;11.96;55.97
5651;BME280;40241;52.684;9.758;2023-05-24T00:45:30;101885.91;;;11.94;55.96
5651;BME280;40241;52.684;9.758;2023-05-24T00:47:55;101884.38;;;11.93;56.03
5651;BME280;40241;52.684;9.758;2023-05-24T00:50:20;101876.31;;;11.90;55.91
5651;BME280;40241;52.684;9.758;2023-05-24T00:52:46;101880.00;;;11.87;55.89
5651;BME280;40241;52.684;9.758;2023-05-24T00:55:13;101908.34;;;11.87;56.05
5651;BME280;40241;52.684;9.758;2023-05-24T00:57:39;101880.75;;;11.87;56.08
5651;BME280;40241;52.684;9.758;2023-05-24T01:00:05;101879.22;;;11.86;56.29
5651;BME280;40241;52.684;9.758;2023-05-24T01:02:32;101879.22;;;11.86;56.35
5651;BME280;40241;52.684;9.758;2023-05-24T01:04:57;101892.06;;;11.89;56.41
5651;BME280;40241;52.684;9.758;2023-05-24T01:10:16;101873.34;;;11.93;57.14
5651;BME280;40241;52.684;9.758;2023-05-24T01:13:11;101877.94;;;11.96;57.23
5651;BME280;40241;52.684;9.758;2023-05-24T01:15:50;101880.22;;;11.98;56.74
5651;BME280;40241;52.684;9.758;2023-05-24T01:20:57;101876.03;;;12.02;56.49
5651;BME280;40241;52.684;9.758;2023-05-24T01:26:31;101868.81;;;12.05;56.93
5651;BME280;40241;52.684;9.758;2023-05-24T01:29:01;101870.81;;;12.04;56.47
5651;BME280;40241;52.684;9.758;2023-05-24T01:31:27;101868.06;;;12.04;56.56
5651;BME280;40241;52.684;9.758;2023-05-24T01:33:52;101866.84;;;12.06;56.67
5651;BME280;40241;52.684;9.758;2023-05-24T01:36:18;101868.34;;;12.07;56.41
5651;BME280;40241;52.684;9.758;2023-05-24T01:38:44;101866.34;;;12.07;56.56
5651;BME280;40241;52.684;9.758;2023-05-24T01:41:42;101862.81;;;12.07;56.87
5651;BME280;40241;52.684;9.758;2023-05-24T01:44:35;101863.31;;;12.05;57.06
5651;BME280;40241;52.684;9.758;2023-05-24T01:47:27;101861.00;;;12.03;57.28
5651;BME280;40241;52.684;9.758;2023-05-24T01:50:06;101851.97;;;12.03;56.67
5651;BME280;40241;52.684;9.758;2023-05-24T01:52:35;101854.75;;;12.03;56.51
5651;BME280;40241;52.684;9.758;2023-05-24T01:55:01;101851.97;;;12.03;56.79
5651;BME280;40241;52.684;9.758;2023-05-24T01:57:28;101852.44;;;12.01;56.74
5651;BME280;40241;52.684;9.758;2023-05-24T01:59:54;101851.22;;;12.02;56.68
5651;BME280;40241;52.684;9.758;2023-05-24T02:02:21;101848.94;;;12.01;56.92
5651;BME280;40241;52.684;9.758;2023-05-24T02:04:46;101842.66;;;12.00;56.84
5651;BME280;40241;52.684;9.758;2023-05-24T02:07:12;101839.91;;;12.00;56.76
5651;BME280;40241;52.684;9.758;2023-05-24T02:09:37;101833.13;;;12.01;56.81
5651;BME280;40241;52.684;9.758;2023-05-24T02:12:03;101837.13;;;12.00;56.95
5651;BME280;40241;52.684;9.758;2023-05-24T02:14:29;101836.66;;;12.02;57.00
5651;BME280;40241;52.684;9.758;2023-05-24T02:16:54;101831.63;;;12.00;56.76
5651;BME280;40241;52.684;9.758;2023-05-24T02:19:23;101826.09;;;12.00;57.03
5651;BME280;40241;52.684;9.758;2023-05-24T02:21:49;101840.66;;;12.01;57.09
5651;BME280;40241;52.684;9.758;2023-05-24T02:24:15;101821.06;;;11.99;56.95
5651;BME280;40241;52.684;9.758;2023-05-24T02:26:42;101834.88;;;11.99;57.15
5651;BME280;40241;52.684;9.758;2023-05-24T02:29:08;101832.84;;;11.99;57.04
5651;BME280;40241;52.684;9.758;2023-05-24T02:31:33;101835.59;;;11.99;56.99
5651;BME280;40241;52.684;9.758;2023-05-24T02:33:58;101835.16;;;12.01;57.04
5651;BME280;40241;52.684;9.758;2023-05-24T02:36:24;101826.59;;;11.99;57.20
5651;BME280;40241;52.684;9.758;2023-05-24T02:38:50;101840.66;;;12.01;57.12
5651;BME280;40241;52.684;9.758;2023-05-24T02:41:16;101830.84;;;12.00;57.07
5651;BME280;40241;52.684;9.758;2023-05-24T02:43:46;101825.34;;;12.00;57.34
5651;BME280;40241;52.684;9.758;2023-05-24T02:46:11;101832.84;;;11.99;57.17
5651;BME280;40241;52.684;9.758;2023-05-24T02:48:37;101829.34;;;11.99;57.23
5651;BME280;40241;52.684;9.758;2023-05-24T02:51:02;101830.84;;;12.00;57.31
5651;BME280;40241;52.684;9.758;2023-05-24T02:53:31;101830.09;;;11.99;57.38
5651;BME280;40241;52.684;9.758;2023-05-24T02:55:57;101838.66;;;12.01;57.41
5651;BME280;40241;52.684;9.758;2023-05-24T02:58:22;101828.38;;;12.02;57.25
5651;BME280;40241;52.684;9.758;2023-05-24T03:00:48;101826.09;;;12.00;57.40
5651;BME280;40241;52.684;9.758;2023-05-24T03:03:14;101837.91;;;12.01;57.32
5651;BME280;40241;52.684;9.758;2023-05-24T03:05:39;101830.38;;;12.01;57.19
5651;BME280;40241;52.684;9.758;2023-05-24T03:08:05;101829.63;;;12.01;57.37
5651;BME280;40241;52.684;9.758;2023-05-24T03:10:31;101832.84;;;11.99;57.37
5651;BME280;40241;52.684;9.758;2023-05-24T03:12:56;101828.09;;;12.00;57.36
5651;BME280;40241;52.684;9.758;2023-05-24T03:15:21;101829.63;;;12.01;57.52
5651;BME280;40241;52.684;9.758;2023-05-24T03:17:47;101815.84;;;12.01;57.36
5651;BME280;40241;52.684;9.758;2023-05-24T03:20:12;101827.63;;;12.01;57.59
5651;BME280;40241;52.684;9.758;2023-05-24T03:22:37;101828.66;;;12.04;57.60
5651;BME280;40241;52.684;9.758;2023-05-24T03:25:03;101823.63;;;12.02;57.39
5651;BME280;40241;52.684;9.758;2023-05-24T03:27:29;101824.13;;;12.01;57.49
5651;BME280;40241;52.684;9.758;2023-05-24T03:29:54;101819.34;;;12.01;57.53
5651;BME280;40241;52.684;9.758;2023-05-24T03:32:19;101824.13;;;12.01;57.72
5651;BME280;40241;52.684;9.758;2023-05-24T03:34:45;101824.28;;;11.97;57.51
5651;BME280;40241;52.684;9.758;2023-05-24T03:37:10;101814.50;;;11.96;57.57
5651;BME280;40241;52.684;9.758;2023-05-24T03:39:36;101824.84;;;12.01;57.76
5651;BME280;40241;52.684;9.758;2023-05-24T03:42:01;101830.38;;;12.01;57.74
5651;BME280;40241;52.684;9.758;2023-05-24T03:44:26;101836.38;;;12.00;57.80
5651;BME280;40241;52.684;9.758;2023-05-24T03:46:52;101832.84;;;11.99;57.81
5651;BME280;40241;52.684;9.758;2023-05-24T03:49:17;101830.38;;;12.01;57.75
5651;BME280;40241;52.684;9.758;2023-05-24T03:51:42;101827.91;;;12.03;57.83
5651;BME280;40241;52.684;9.758;2023-05-24T03:54:08;101836.78;;;12.08;57.92
5651;BME280;40241;52.684;9.758;2023-05-24T03:56:33;101831.53;;;12.10;57.79
5651;BME280;40241;52.684;9.758;2023-05-24T03:58:58;101834.59;;;12.12;57.81
5651;BME280;40241;52.684;9.758;2023-05-24T04:01:28;101832.13;;;12.14;57.92
5651;BME280;40241;52.684;9.758;2023-05-24T04:03:56;101835.34;;;12.12;57.80
5651;BME280;40241;52.684;9.758;2023-05-24T04:06:21;101836.09;;;12.13;57.88
5651;BME280;40241;52.684;9.758;2023-05-24T04:08:53;101832.13;;;12.14;57.89
5651;BME280;40241;52.684;9.758;2023-05-24T04:11:19;101833.63;;;12.15;57.80
5651;BME280;40241;52.684;9.758;2023-05-24T04:13:46;101835.16;;;12.16;57.86
5651;BME280;40241;52.684;9.758;2023-05-24T04:16:11;101838.19;;;12.18;57.94
5651;BME280;40241;52.684;9.758;2023-05-24T04:18:38;101842.50;;;12.19;57.71
5651;BME280;40241;52.684;9.758;2023-05-24T04:21:03;101844.28;;;12.22;57.89
5651;BME280;40241;52.684;9.758;2023-05-24T04:23:29;101839.81;;;12.24;57.83
5651;BME280;40241;52.684;9.758;2023-05-24T04:25:54;101841.38;;;12.25;57.94
5651;BME280;40241;52.684;9.758;2023-05-24T04:28:19;101840.09;;;12.26;57.96
5651;BME280;40241;52.684;9.758;2023-05-24T04:30:46;101837.91;;;12.30;57.98
5651;BME280;40241;52.684;9.758;2023-05-24T04:33:12;101846.47;;;12.32;58.04
5651;BME280;40241;52.684;9.758;2023-05-24T04:35:39;101847.25;;;12.33;57.77
5651;BME280;40241;52.684;9.758;2023-05-24T04:38:05;101844.78;;;12.35;57.94
5651;BME280;40241;52.684;9.758;2023-05-24T04:40:31;101846.59;;;12.38;57.96
5651;BME280;40241;52.684;9.758;2023-05-24T04:42:56;101842.13;;;12.40;57.82
5651;BME280;40241;52.684;9.758;2023-05-24T04:45:22;101837.94;;;12.45;58.04
5651;BME280;40241;52.684;9.758;2023-05-24T04:47:47;101845.25;;;12.48;57.92
5651;BME280;40241;52.684;9.758;2023-05-24T04:50:12;101837.75;;;12.48;57.88
5651;BME280;40241;52.684;9.758;2023-05-24T04:52:38;101836.31;;;12.53;57.85
5651;BME280;40241;52.684;9.758;2023-05-24T04:55:04;101843.94;;;12.58;57.92
5651;BME280;40241;52.684;9.758;2023-05-24T04:57:30;101837.94;;;12.59;57.79
5651;BME280;40241;52.684;9.758;2023-05-24T04:59:55;101842.97;;;12.61;57.75
5651;BME280;40241;52.684;9.758;2023-05-24T05:02:20;101848.31;;;12.64;57.67
5651;BME280;40241;52.684;9.758;2023-05-24T05:04:46;101856.88;;;12.66;57.75
5651;BME280;40241;52.684;9.758;2023-05-24T05:07:11;101850.88;;;12.68;57.80
5651;BME280;40241;52.684;9.758;2023-05-24T05:09:37;101854.69;;;12.70;57.95
5651;BME280;40241;52.684;9.758;2023-05-24T05:12:02;101849.44;;;12.72;57.92
5651;BME280;40241;52.684;9.758;2023-05-24T05:14:28;101850.47;;;12.75;57.95
5651;BME280;40241;52.684;9.758;2023-05-24T05:16:53;101842.00;;;12.78;57.88
5651;BME280;40241;52.684;9.758;2023-05-24T05:19:19;101848.63;;;12.87;57.94
5651;BME280;40241;52.684;9.758;2023-05-24T05:21:44;101851.50;;;12.92;57.72
5651;BME280;40241;52.684;9.758;2023-05-24T05:24:10;101850.25;;;12.93;57.67
5651;BME280;40241;52.684;9.758;2023-05-24T05:26:35;101859.31;;;12.94;57.76
5651;BME280;40241;52.684;9.758;2023-05-24T05:29:00;101859.13;;;12.97;57.59
5651;BME280;40241;52.684;9.758;2023-05-24T05:31:26;101855.38;;;13.00;57.63
5651;BME280;40241;52.684;9.758;2023-05-24T05:33:51;101864.22;;;13.04;57.74
5651;BME280;40241;52.684;9.758;2023-05-24T05:36:16;101867.59;;;13.08;57.75
5651;BME280;40241;52.684;9.758;2023-05-24T05:38:42;101863.97;;;13.17;57.80
5651;BME280;40241;52.684;9.758;2023-05-24T05:41:07;101870.88;;;13.27;57.79
5651;BME280;40241;52.684;9.758;2023-05-24T05:43:34;101862.66;;;13.32;57.42
5651;BME280;40241;52.684;9.758;2023-05-24T05:45:59;101861.63;;;13.30;57.39
5651;BME280;40241;52.684;9.758;2023-05-24T05:48:25;101862.38;;;13.30;57.68
5651;BME280;40241;52.684;9.758;2023-05-24T05:50:50;101863.69;;;13.35;57.65
5651;BME280;40241;52.684;9.758;2023-05-24T05:53:15;101861.47;;;13.39;57.49
5651;BME280;40241;52.684;9.758;2023-05-24T05:55:41;101867.59;;;13.43;57.36
5651;BME280;40241;52.684;9.758;2023-05-24T05:58:06;101875.63;;;13.41;57.49
5651;BME280;40241;52.684;9.758;2023-05-24T06:00:32;101878.66;;;13.43;57.37
5651;BME280;40241;52.684;9.758;2023-05-24T06:02:57;101883.19;;;13.46;57.39
5651;BME280;40241;52.684;9.758;2023-05-24T06:05:22;101873.19;;;13.48;57.56
5651;BME280;40241;52.684;9.758;2023-05-24T06:07:48;101873.81;;;13.58;57.32
5651;BME280;40241;52.684;9.758;2023-05-24T06:10:13;101875.41;;;13.65;57.58
5651;BME280;40241;52.684;9.758;2023-05-24T06:12:38;101873.53;;;13.76;57.58
5651;BME280;40241;52.684;9.758;2023-05-24T06:15:08;101877.41;;;13.84;57.06
5651;BME280;40241;52.684;9.758;2023-05-24T06:17:35;101882.81;;;13.93;57.19
5651;BME280;40241;52.684;9.758;2023-05-24T06:20:02;101885.13;;;14.00;57.16
5651;BME280;40241;52.684;9.758;2023-05-24T06:22:36;101885.22;;;14.06;57.04
5651;BME280;40241;52.684;9.758;2023-05-24T06:25:03;101875.66;;;14.07;57.17
5651;BME280;40241;52.684;9.758;2023-05-24T06:27:29;101890.53;;;14.09;57.22
5651;BME280;40241;52.684;9.758;2023-05-24T06:29:55;101881.03;;;14.16;57.26
5651;BME280;40241;52.684;9.758;2023-05-24T06:32:20;101886.16;;;14.23;56.78
5651;BME280;40241;52.684;9.758;2023-05-24T06:34:45;101886.69;;;14.27;56.89
5651;BME280;40241;52.684;9.758;2023-05-24T06:37:10;101893.28;;;14.30;56.84
5651;BME280;40241;52.684;9.758;2023-05-24T06:39:39;101893.06;;;14.33;56.83
5651;BME280;40241;52.684;9.758;2023-05-24T06:42:05;101892.22;;;14.27;56.87
5651;BME280;40241;52.684;9.758;2023-05-24T06:44:30;101894.50;;;14.28;57.13
5651;BME280;40241;52.684;9.758;2023-05-24T06:46:59;101895.56;;;14.31;56.97
5651;BME280;40241;52.684;9.758;2023-05-24T06:49:25;101898.59;;;14.33;56.89
5651;BME280;40241;52.684;9.758;2023-05-24T06:51:50;101908.19;;;14.32;56.82
5651;BME280;40241;52.684;9.758;2023-05-24T06:54:15;101915.44;;;14.30;56.78
5651;BME280;40241;52.684;9.758;2023-05-24T06:56:41;101906.06;;;14.27;57.01
5651;BME280;40241;52.684;9.758;2023-05-24T06:59:06;101902.63;;;14.32;57.15
5651;BME280;40241;52.684;9.758;2023-05-24T07:01:32;101912.44;;;14.33;57.05
5651;BME280;40241;52.684;9.758;2023-05-24T07:03:58;101908.44;;;14.34;57.09
5651;BME280;40241;52.684;9.758;2023-05-24T07:06:23;101904.41;;;14.35;57.22
5651;BME280;40241;52.684;9.758;2023-05-24T07:08:49;101909.47;;;14.37;57.17
5651;BME280;40241;52.684;9.758;2023-05-24T07:11:14;101914.53;;;14.38;57.36
5651;BME280;40241;52.684;9.758;2023-05-24T07:13:40;101917.56;;;14.40;57.34
5651;BME280;40241;52.684;9.758;2023-05-24T07:16:05;101921.59;;;14.39;57.09
5651;BME280;40241;52.684;9.758;2023-05-24T07:18:31;101917.28;;;14.38;57.29
5651;BME280;40241;52.684;9.758;2023-05-24T07:20:56;101915.47;;;14.35;57.25
5651;BME280;40241;52.684;9.758;2023-05-24T07:23:21;101921.78;;;14.36;57.38
5651;BME280;40241;52.684;9.758;2023-05-24T07:25:47;101925.06;;;14.34;57.51
5651;BME280;40241;52.684;9.758;2023-05-24T07:28:13;101931.13;;;14.38;57.44
5651;BME280;40241;52.684;9.758;2023-05-24T07:30:39;101932.19;;;14.41;57.31
5651;BME280;40241;52.684;9.758;2023-05-24T07:33:05;101925.88;;;14.40;57.41
5651;BME280;40241;52.684;9.758;2023-05-24T07:35:31;101937.97;;;14.43;57.55
5651;BME280;40241;52.684;9.758;2023-05-24T07:37:56;101929.28;;;14.55;57.59
5651;BME280;40241;52.684;9.758;2023-05-24T07:40:22;101922.28;;;14.60;57.29
5651;BME280;40241;52.684;9.758;2023-05-24T07:42:48;101938.72;;;14.63;57.29
5651;BME280;40241;52.684;9.758;2023-05-24T07:45:13;101935.44;;;14.65;57.38
5651;BME280;40241;52.684;9.758;2023-05-24T07:47:39;101933.63;;;14.62;57.38
5651;BME280;40241;52.684;9.758;2023-05-24T07:50:05;101947.72;;;14.58;57.32
5651;BME280;40241;52.684;9.758;2023-05-24T07:52:31;101943.69;;;14.59;57.33
5651;BME280;40241;52.684;9.758;2023-05-24T07:54:56;101947.47;;;14.62;57.35
5651;BME280;40241;52.684;9.758;2023-05-24T07:57:21;101941.19;;;14.61;57.48
5651;BME280;40241;52.684;9.758;2023-05-24T07:59:48;101944.03;;;14.67;57.40
5651;BME280;40241;52.684;9.758;2023-05-24T08:02:13;101948.78;;;14.66;57.37
5651;BME280;40241;52.684;9.758;2023-05-24T08:04:39;101946.72;;;14.61;57.37
5651;BME280;40241;52.684;9.758;2023-05-24T08:07:05;101950.97;;;14.57;57.31
5651;BME280;40241;52.684;9.758;2023-05-24T08:09:31;101947.19;;;14.54;57.78
5651;BME280;40241;52.684;9.758;2023-05-24T08:12:03;101947.19;;;14.54;57.58
5651;BME280;40241;52.684;9.758;2023-05-24T08:14:28;101950.22;;;14.56;57.53
5651;BME280;40241;52.684;9.758;2023-05-24T08:16:53;101942.88;;;14.53;57.56
5651;BME280;40241;52.684;9.758;2023-05-24T08:19:19;101952.44;;;14.52;57.66
5651;BME280;40241;52.684;9.758;2023-05-24T08:21:45;101955.47;;;14.54;57.81
5651;BME280;40241;52.684;9.758;2023-05-24T08:24:10;101951.72;;;14.57;57.68
5651;BME280;40241;52.684;9.758;2023-05-24T08:26:36;101959.56;;;14.59;57.68
5651;BME280;40241;52.684;9.758;2023-05-24T08:29:02;101966.09;;;14.61;57.57
5651;BME280;40241;52.684;9.758;2023-05-24T08:31:29;101970.94;;;14.66;57.72
5651;BME280;40241;52.684;9.758;2023-05-24T08:33:54;101960.13;;;14.68;57.64
5651;BME280;40241;52.684;9.758;2023-05-24T08:36:21;101973.72;;;14.66;57.81
5651;BME280;40241;52.684;9.758;2023-05-24T08:38:47;101969.97;;;14.69;57.85
5651;BME280;40241;52.684;9.758;2023-05-24T08:41:12;101974.53;;;14.72;57.87
5651;BME280;40241;52.684;9.758;2023-05-24T08:43:38;101974.81;;;14.74;57.96
5651;BME280;40241;52.684;9.758;2023-05-24T08:46:04;101972.59;;;14.78;58.06
5651;BME280;40241;52.684;9.758;2023-05-24T08:48:30;101965.59;;;14.83;58.05
5651;BME280;40241;52.684;9.758;2023-05-24T08:50:56;101970.13;;;14.86;57.92
5651;BME280;40241;52.684;9.758;2023-05-24T08:53:22;101975.69;;;14.86;58.19
5651;BME280;40241;52.684;9.758;2023-05-24T08:55:48;101978.19;;;14.84;58.23
5651;BME280;40241;52.684;9.758;2023-05-24T08:58:17;101981.91;;;14.81;58.41
5651;BME280;40241;52.684;9.758;2023-05-24T09:00:43;101980.91;;;14.78;58.38
5651;BME280;40241;52.684;9.758;2023-05-24T09:03:09;101987.41;;;14.75;58.57
5651;BME280;40241;52.684;9.758;2023-05-24T09:05:36;101983.69;;;14.78;58.55
5651;BME280;40241;52.684;9.758;2023-05-24T09:08:02;101973.34;;;14.79;58.67
5651;BME280;40241;52.684;9.758;2023-05-24T09:10:28;101970.56;;;14.79;58.96
5651;BME280;40241;52.684;9.758;2023-05-24T09:12:57;101981.22;;;14.86;58.83
5651;BME280;40241;52.684;9.758;2023-05-24T09:15:23;101975.19;;;14.87;58.83
5651;BME280;40241;52.684;9.758;2023-05-24T09:17:48;101981.28;;;14.91;58.96
5651;BME280;40241;52.684;9.758;2023-05-24T09:20:14;101977.25;;;14.92;58.88
5651;BME280;40241;52.684;9.758;2023-05-24T09:22:40;101975.25;;;14.93;59.04
5651;BME280;40241;52.684;9.758;2023-05-24T09:25:06;101976.28;;;14.95;58.98
5651;BME280;40241;52.684;9.758;2023-05-24T09:27:34;101977.09;;;15.01;59.17
5651;BME280;40241;52.684;9.758;2023-05-24T09:29:59;101973.88;;;15.09;59.20
5651;BME280;40241;52.684;9.758;2023-05-24T09:32:26;101969.41;;;15.17;59.27
5651;BME280;40241;52.684;9.758;2023-05-24T09:34:53;101977.00;;;15.22;59.10
5651;BME280;40241;52.684;9.758;2023-05-24T09:37:20;101978.06;;;15.30;59.14
5651;BME280;40241;52.684;9.758;2023-05-24T09:39:49;101974.31;;;15.33;59.08
5651;BME280;40241;52.684;9.758;2023-05-24T09:42:22;101975.63;;;15.43;59.10
5651;BME280;40241;52.684;9.758;2023-05-24T09:45:05;101973.03;;;15.59;59.71
5651;BME280;40241;52.684;9.758;2023-05-24T09:47:34;101986.19;;;15.70;58.85
5651;BME280;40241;52.684;9.758;2023-05-24T09:50:03;101980.44;;;15.79;58.79
5651;BME280;40241;52.684;9.758;2023-05-24T09:52:29;101985.75;;;15.83;58.65
5651;BME280;40241;52.684;9.758;2023-05-24T09:54:55;101977.69;;;15.85;58.61
5651;BME280;40241;52.684;9.758;2023-05-24T09:57:20;101986.53;;;15.83;58.62
5651;BME280;40241;52.684;9.758;2023-05-24T09:59:48;101992.59;;;15.87;58.56
5651;BME280;40241;52.684;9.758;2023-05-24T10:02:14;101989.06;;;15.87;58.48
5651;BME280;40241;52.684;9.758;2023-05-24T10:04:40;101993.59;;;15.84;58.65
5651;BME280;40241;52.684;9.758;2023-05-24T10:07:06;101986.53;;;15.83;58.53
5651;BME280;40241;52.684;9.758;2023-05-24T10:09:32;101998.88;;;15.82;58.48
5651;BME280;40241;52.684;9.758;2023-05-24T10:12:03;101990.78;;;15.79;58.42
5651;BME280;40241;52.684;9.758;2023-05-24T10:14:33;101988.00;;;15.79;58.58
5651;BME280;40241;52.684;9.758;2023-05-24T10:17:00;101993.06;;;15.80;58.57
5651;BME280;40241;52.684;9.758;2023-05-24T10:19:26;101991.56;;;15.79;58.55
5651;BME280;40241;52.684;9.758;2023-05-24T10:21:52;101990.03;;;15.78;58.66
5651;BME280;40241;52.684;9.758;2023-05-24T10:24:23;101995.84;;;15.80;58.60
5651;BME280;40241;52.684;9.758;2023-05-24T10:26:51;101995.06;;;15.80;58.64
5651;BME280;40241;52.684;9.758;2023-05-24T10:29:29;101989.75;;;15.76;58.79
5651;BME280;40241;52.684;9.758;2023-05-24T10:31:57;101995.31;;;15.76;58.79
5651;BME280;40241;52.684;9.758;2023-05-24T10:34:23;101994.59;;;15.81;58.72
5651;BME280;40241;52.684;9.758;2023-05-24T10:36:50;101993.13;;;15.91;58.79
5651;BME280;40241;52.684;9.758;2023-05-24T10:39:19;101990.41;;;16.02;58.77
5651;BME280;40241;52.684;9.758;2023-05-24T10:41:45;102000.03;;;16.12;58.67
5651;BME280;40241;52.684;9.758;2023-05-24T10:44:11;101986.44;;;16.20;58.55
5651;BME280;40241;52.684;9.758;2023-05-24T10:47:09;101995.03;;;16.27;58.60
5651;BME280;40241;52.684;9.758;2023-05-24T10:49:35;101999.59;;;16.30;58.22
5651;BME280;40241;52.684;9.758;2023-05-24T10:52:11;101995.63;;;16.48;58.25
5651;BME280;40241;52.684;9.758;2023-05-24T10:54:37;101996.47;;;16.60;58.17
5651;BME280;40241;52.684;9.758;2023-05-24T10:57:03;101995.22;;;16.66;57.91
5651;BME280;40241;52.684;9.758;2023-05-24T10:59:39;101997.97;;;16.72;57.99
5651;BME280;40241;52.684;9.758;2023-05-24T11:02:08;102002.53;;;16.69;57.61
5651;BME280;40241;52.684;9.758;2023-05-24T11:04:45;102003.81;;;16.68;57.58
5651;BME280;40241;52.684;9.758;2023-05-24T11:07:13;101989.63;;;16.61;57.78
5651;BME280;40241;52.684;9.758;2023-05-24T11:09:40;101991.13;;;16.51;57.81
5651;BME280;40241;52.684;9.758;2023-05-24T11:12:13;101990.31;;;16.44;57.82
5651;BME280;40241;52.684;9.758;2023-05-24T11:14:39;101989.53;;;16.38;57.86
5651;BME280;40241;52.684;9.758;2023-05-24T11:17:05;101989.25;;;16.36;57.91
5651;BME280;40241;52.684;9.758;2023-05-24T11:19:36;101987.78;;;16.35;58.02
5651;BME280;40241;52.684;9.758;2023-05-24T11:22:10;101992.59;;;16.46;58.31
5651;BME280;40241;52.684;9.758;2023-05-24T11:24:39;101987.56;;;16.56;58.20
5651;BME280;40241;52.684;9.758;2023-05-24T11:27:05;101990.63;;;16.63;57.84
5651;BME280;40241;52.684;9.758;2023-05-24T11:29:31;101990.13;;;16.65;57.81
5651;BME280;40241;52.684;9.758;2023-05-24T11:31:58;102000.25;;;16.68;57.85
5651;BME280;40241;52.684;9.758;2023-05-24T11:34:30;101992.69;;;16.74;57.74
5651;BME280;40241;52.684;9.758;2023-05-24T11:36:57;101992.19;;;16.86;57.87
5651;BME280;40241;52.684;9.758;2023-05-24T11:39:23;101992.72;;;17.01;57.82
5651;BME280;40241;52.684;9.758;2023-05-24T11:41:49;101999.28;;;17.15;57.31
5651;BME280;40241;52.684;9.758;2023-05-24T11:44:17;102004.09;;;17.25;57.20
5651;BME280;40241;52.684;9.758;2023-05-24T11:46:43;101995.75;;;17.31;57.04
5651;BME280;40241;52.684;9.758;2023-05-24T11:49:15;101996.25;;;17.35;56.84
5651;BME280;40241;52.684;9.758;2023-05-24T11:51:41;102001.31;;;17.31;56.98
5651;BME280;40241;52.684;9.758;2023-05-24T11:54:07;101997.28;;;17.38;56.88
5651;BME280;40241;52.684;9.758;2023-05-24T11:56:33;102000.31;;;17.40;56.78
5651;BME280;40241;52.684;9.758;2023-05-24T11:59:10;101989.94;;;17.40;56.57
5651;BME280;40241;52.684;9.758;2023-05-24T12:01:38;101990.94;;;17.48;56.79
5651;BME280;40241;52.684;9.758;2023-05-24T12:04:05;101998.28;;;17.62;56.66
5651;BME280;40241;52.684;9.758;2023-05-24T12:06:41;101997.22;;;17.76;55.95
5651;BME280;40241;52.684;9.758;2023-05-24T12:09:08;101999.25;;;17.81;56.27
5651;BME280;40241;52.684;9.758;2023-05-24T12:11:39;102005.31;;;17.85;55.66
5651;BME280;40241;52.684;9.758;2023-05-24T12:14:06;101986.81;;;17.93;56.20
5651;BME280;40241;52.684;9.758;2023-05-24T12:16:31;101994.63;;;18.01;55.93
5651;BME280;40241;52.684;9.758;2023-05-24T12:18:58;101999.44;;;18.06;55.96
5651;BME280;40241;52.684;9.758;2023-05-24T12:21:23;101987.00;;;18.12;55.78
5651;BME280;40241;52.684;9.758;2023-05-24T12:23:49;101996.13;;;18.13;55.56
5651;BME280;40241;52.684;9.758;2023-05-24T12:26:17;101988.78;;;18.10;55.49
5651;BME280;40241;52.684;9.758;2023-05-24T12:28:44;101989.84;;;17.95;55.37
5651;BME280;40241;52.684;9.758;2023-05-24T12:31:09;101997.25;;;17.71;55.45
5651;BME280;40241;52.684;9.758;2023-05-24T12:33:35;101994.50;;;17.54;55.59
5651;BME280;40241;52.684;9.758;2023-05-24T12:36:01;101996.00;;;17.44;55.82
5651;BME280;40241;52.684;9.758;2023-05-24T12:38:27;102006.13;;;17.36;55.86
5651;BME280;40241;52.684;9.758;2023-05-24T12:40:52;102007.88;;;17.28;55.93
5651;BME280;40241;52.684;9.758;2023-05-24T12:43:19;102005.59;;;17.32;56.04
5651;BME280;40241;52.684;9.758;2023-05-24T12:45:45;102001.06;;;17.40;56.17
5651;BME280;40241;52.684;9.758;2023-05-24T12:48:11;102006.38;;;17.55;56.07
5651;BME280;40241;52.684;9.758;2023-05-24T12:50:36;102010.16;;;17.68;56.12
5651;BME280;40241;52.684;9.758;2023-05-24T12:53:02;102006.31;;;17.82;55.88
5651;BME280;40241;52.684;9.758;2023-05-24T12:55:27;101995.41;;;17.95;55.70
5651;BME280;40241;52.684;9.758;2023-05-24T12:57:54;102001.97;;;18.04;55.59
5651;BME280;40241;52.684;9.758;2023-05-24T13:00:20;101990.03;;;18.14;55.60
5651;BME280;40241;52.684;9.758;2023-05-24T13:02:47;101994.03;;;18.30;55.40
5651;BME280;40241;52.684;9.758;2023-05-24T13:05:13;101991.41;;;18.43;55.23
5651;BME280;40241;52.684;9.758;2023-05-24T13:07:39;101996.19;;;18.53;54.63